< < Back
Terminal Aerodrome Forecast


Current Version              Previous Versions:   1  2  3  4  5  6  7  8  9  

Terminal Aerodrome Forecast

066
FTUS42 KTAE 271120
TAFABY
TAF
KABY 271120Z 2712/2812 00000KT P6SM SKC
     FM271400 05011KT P6SM FEW050
     FM280000 VRB03KT P6SM SKC=

Latest METAR

944
SAUS70 KWBC 280256
MTRABY
METAR KABY 280253Z 00000KT 10SM CLR 28/22 A2996 RMK AO2 SLP143 T02780222
53009


USA.gov is the U.S. government's official web portal to all federal, state and local government web resources and services.